createdAt,value
2022-12-12T00:00:21.293Z,37.70
2022-12-12T00:05:42.269Z,37.70
2022-12-12T00:11:02.405Z,37.70
2022-12-12T00:16:22.647Z,37.70
2022-12-12T00:21:42.663Z,37.70
2022-12-12T00:27:02.914Z,37.70
2022-12-12T00:32:23.148Z,37.60
2022-12-12T00:37:43.235Z,37.60
2022-12-12T00:43:03.360Z,37.60
2022-12-12T00:48:23.565Z,37.60
2022-12-12T00:53:43.710Z,37.60
2022-12-12T00:59:03.810Z,37.60
2022-12-12T01:04:23.926Z,37.50
2022-12-12T01:09:44.167Z,37.50
2022-12-12T01:15:04.154Z,37.50
2022-12-12T01:20:24.328Z,37.40
2022-12-12T01:25:44.465Z,37.50
2022-12-12T01:31:04.771Z,37.40
2022-12-12T01:36:24.994Z,37.40
2022-12-12T01:41:45.119Z,37.40
2022-12-12T01:47:05.349Z,37.40
2022-12-12T01:52:25.567Z,37.40
2022-12-12T01:57:45.825Z,37.40
2022-12-12T02:03:05.927Z,37.40
2022-12-12T02:08:26.272Z,37.40
2022-12-12T02:13:46.227Z,37.40
2022-12-12T02:19:06.499Z,37.30
2022-12-12T02:24:26.610Z,37.30
2022-12-12T02:29:46.743Z,37.30
2022-12-12T02:35:06.881Z,37.30
2022-12-12T02:40:26.975Z,37.30
2022-12-12T02:45:47.236Z,37.30
2022-12-12T02:51:07.430Z,37.30
2022-12-12T02:56:27.680Z,37.30
2022-12-12T03:01:47.861Z,37.30
2022-12-12T03:07:07.827Z,37.30
2022-12-12T03:12:28.036Z,37.20
2022-12-12T03:17:48.141Z,37.20
2022-12-12T03:23:08.369Z,37.20
2022-12-12T03:28:28.795Z,37.20
2022-12-12T03:33:48.973Z,37.20
2022-12-12T03:39:09.251Z,37.10
2022-12-12T03:44:29.406Z,37.10
2022-12-12T03:49:49.541Z,37.00
2022-12-12T03:55:09.868Z,37.10
2022-12-12T04:00:29.808Z,37.10
2022-12-12T04:05:50.043Z,37.00
2022-12-12T04:11:10.160Z,37.00
2022-12-12T04:16:30.293Z,37.00
2022-12-12T04:21:50.348Z,37.00
2022-12-12T04:27:10.605Z,37.00
2022-12-12T04:32:30.635Z,37.00
2022-12-12T04:37:50.845Z,37.10
2022-12-12T04:43:10.890Z,37.00
2022-12-12T04:48:33.367Z,36.90
2022-12-12T04:53:57.150Z,36.90
2022-12-12T04:59:17.262Z,37.00
2022-12-12T05:04:37.482Z,36.90
2022-12-12T05:09:57.731Z,36.90
2022-12-12T05:15:17.803Z,36.90
2022-12-12T05:20:37.883Z,36.90
2022-12-12T05:25:58.082Z,36.90
2022-12-12T05:31:18.377Z,36.90
2022-12-12T05:36:38.622Z,36.90
2022-12-12T05:41:58.681Z,36.80
2022-12-12T05:47:18.812Z,36.80
2022-12-12T05:52:39.116Z,36.80
2022-12-12T05:57:59.257Z,36.80
2022-12-12T06:03:19.407Z,36.80
2022-12-12T06:08:39.712Z,36.80
2022-12-12T06:13:59.738Z,36.70
2022-12-12T06:19:19.897Z,36.80
2022-12-12T06:24:40.066Z,36.80
2022-12-12T06:30:00.187Z,36.70
2022-12-12T06:35:20.279Z,36.80
2022-12-12T06:40:40.402Z,36.70
2022-12-12T06:46:00.579Z,36.70
2022-12-12T06:51:20.668Z,36.70
2022-12-12T06:56:46.202Z,36.80
2022-12-12T07:02:07.857Z,37.30
2022-12-12T07:07:27.806Z,36.70
2022-12-12T07:12:48.172Z,36.70
2022-12-12T07:18:08.384Z,36.70
2022-12-12T07:23:28.625Z,36.60
2022-12-12T07:28:48.806Z,36.60
2022-12-12T07:34:09.078Z,36.70
2022-12-12T07:39:29.196Z,36.60
2022-12-12T07:44:49.405Z,36.60
2022-12-12T07:50:09.562Z,36.60
2022-12-12T07:55:29.851Z,36.60
2022-12-12T08:00:49.898Z,36.60
2022-12-12T08:06:10.058Z,36.60
2022-12-12T08:11:30.134Z,36.50
2022-12-12T08:16:50.385Z,36.50
2022-12-12T08:22:10.421Z,36.60
2022-12-12T08:27:30.712Z,36.50
2022-12-12T08:32:50.835Z,36.50
2022-12-12T08:38:10.983Z,36.50
2022-12-12T08:43:31.122Z,36.50
2022-12-12T08:48:51.465Z,36.50
2022-12-12T08:54:11.493Z,36.60
2022-12-12T08:59:31.868Z,36.50
2022-12-12T09:04:51.841Z,36.60
2022-12-12T09:10:12.152Z,36.90
2022-12-12T09:15:32.229Z,36.80
2022-12-12T09:20:52.617Z,37.10
2022-12-12T09:26:12.677Z,37.60
2022-12-12T09:31:32.957Z,37.80
2022-12-12T09:36:53.082Z,38.00
2022-12-12T09:42:13.190Z,38.10
2022-12-12T09:47:33.341Z,38.30
2022-12-12T09:52:53.496Z,38.10
2022-12-12T09:58:13.656Z,37.80
2022-12-12T10:03:33.839Z,37.70
2022-12-12T10:08:54.100Z,37.80
2022-12-12T10:14:14.132Z,37.80
2022-12-12T10:19:34.259Z,37.90
2022-12-12T10:24:54.356Z,37.90
2022-12-12T10:30:14.823Z,38.00
2022-12-12T10:35:35.246Z,38.70
2022-12-12T10:40:55.500Z,39.00
2022-12-12T10:46:15.795Z,38.80
2022-12-12T10:51:35.842Z,38.50
2022-12-12T10:56:55.919Z,38.10
2022-12-12T11:02:16.165Z,37.60
2022-12-12T11:07:36.323Z,37.00
2022-12-12T11:12:56.362Z,36.50
2022-12-12T11:18:16.528Z,36.10
2022-12-12T11:23:36.773Z,35.60
2022-12-12T11:28:56.856Z,34.90
2022-12-12T11:34:17.003Z,34.50
2022-12-12T11:39:37.024Z,34.20
2022-12-12T11:44:57.186Z,34.00
2022-12-12T11:50:17.368Z,33.80
2022-12-12T11:55:37.535Z,33.70
2022-12-12T12:00:57.737Z,33.50
2022-12-12T12:06:17.973Z,33.40
2022-12-12T12:11:38.021Z,33.30
2022-12-12T12:16:58.145Z,33.30
2022-12-12T12:22:18.224Z,33.20
2022-12-12T12:27:38.338Z,33.30
2022-12-12T12:32:58.454Z,33.30
2022-12-12T12:38:18.719Z,33.30
2022-12-12T12:43:38.803Z,33.10
2022-12-12T12:48:59.050Z,33.20
2022-12-12T12:54:19.114Z,33.20
2022-12-12T12:59:39.181Z,33.40
2022-12-12T13:04:59.404Z,33.40
2022-12-12T13:10:19.616Z,33.40
2022-12-12T13:15:39.824Z,33.50
2022-12-12T13:20:59.930Z,33.60
2022-12-12T13:26:20.183Z,33.60
2022-12-12T13:31:40.558Z,32.50
2022-12-12T13:37:00.586Z,32.20
2022-12-12T13:42:20.693Z,32.30
2022-12-12T13:47:40.808Z,32.60
2022-12-12T13:53:01.145Z,33.00
2022-12-12T13:58:21.240Z,33.20
2022-12-12T14:03:41.402Z,33.50
2022-12-12T14:09:01.474Z,33.90
2022-12-12T14:14:21.592Z,34.20
2022-12-12T14:19:42.836Z,34.50
2022-12-12T14:25:02.887Z,34.80
2022-12-12T14:30:23.142Z,35.00
2022-12-12T14:35:43.349Z,35.30
2022-12-12T14:41:03.421Z,35.50
2022-12-12T14:46:23.670Z,35.80
2022-12-12T14:51:43.747Z,36.00
2022-12-12T14:57:03.952Z,36.20
2022-12-12T15:02:24.100Z,36.30
2022-12-12T15:07:44.221Z,36.50
2022-12-12T15:13:04.433Z,36.60
2022-12-12T15:18:24.557Z,36.80
2022-12-12T15:23:44.692Z,36.80
2022-12-12T15:29:04.873Z,36.90
2022-12-12T15:34:25.170Z,37.00
2022-12-12T15:39:45.388Z,37.10
2022-12-12T15:45:05.534Z,37.10
2022-12-12T15:50:25.829Z,37.20
2022-12-12T15:55:45.919Z,37.20
2022-12-12T16:01:06.206Z,37.40
2022-12-12T16:06:26.178Z,37.40
2022-12-12T16:11:46.444Z,37.40
2022-12-12T16:17:06.685Z,37.50
2022-12-12T16:22:26.857Z,37.60
2022-12-12T16:27:47.015Z,37.60
2022-12-12T16:33:07.227Z,37.60
2022-12-12T16:38:27.349Z,37.70
2022-12-12T16:43:47.379Z,37.70
2022-12-12T16:49:10.598Z,37.80
2022-12-12T16:54:35.256Z,37.80
2022-12-12T16:59:55.284Z,37.80
2022-12-12T17:05:15.381Z,37.60
2022-12-12T17:10:35.362Z,37.50
2022-12-12T17:15:55.540Z,37.60
2022-12-12T17:21:15.533Z,37.80
2022-12-12T17:26:35.638Z,37.80
2022-12-12T17:31:55.566Z,37.70
2022-12-12T17:37:15.838Z,37.70
2022-12-12T17:42:35.997Z,37.80
2022-12-12T17:47:56.102Z,37.80
2022-12-12T17:53:16.173Z,37.80
2022-12-12T17:58:36.343Z,37.80
2022-12-12T18:03:56.355Z,37.80
2022-12-12T18:09:16.412Z,37.80
2022-12-12T18:14:36.443Z,37.90
2022-12-12T18:19:56.616Z,37.90
2022-12-12T18:25:16.747Z,37.90
2022-12-12T18:30:36.843Z,37.90
2022-12-12T18:35:56.942Z,37.90
2022-12-12T18:41:17.203Z,38.00
2022-12-12T18:46:42.219Z,38.00
2022-12-12T18:52:03.018Z,37.90
2022-12-12T18:57:23.027Z,37.80
2022-12-12T19:02:43.279Z,37.90
2022-12-12T19:08:03.487Z,37.80
2022-12-12T19:13:23.567Z,37.90
2022-12-12T19:18:43.885Z,37.90
2022-12-12T19:24:03.931Z,37.90
2022-12-12T19:29:24.060Z,38.00
2022-12-12T19:34:44.047Z,37.90
2022-12-12T19:40:04.058Z,38.00
2022-12-12T19:45:24.262Z,38.10
2022-12-12T19:50:44.260Z,38.10
2022-12-12T19:56:04.374Z,38.00
2022-12-12T20:01:24.625Z,38.00
2022-12-12T20:06:44.962Z,38.00
2022-12-12T20:12:05.193Z,38.00
2022-12-12T20:17:25.420Z,38.00
2022-12-12T20:22:45.556Z,38.00
2022-12-12T20:28:05.673Z,38.10
2022-12-12T20:33:25.754Z,38.00
2022-12-12T20:38:46.065Z,38.30
2022-12-12T20:44:06.160Z,38.10
2022-12-12T20:49:26.334Z,38.10
2022-12-12T20:54:46.495Z,38.00
2022-12-12T21:00:06.667Z,38.00
2022-12-12T21:05:26.715Z,38.00
2022-12-12T21:10:46.855Z,38.00
2022-12-12T21:16:07.039Z,38.10
2022-12-12T21:21:27.321Z,38.00
2022-12-12T21:26:47.363Z,38.00
2022-12-12T21:32:07.591Z,38.00
2022-12-12T21:37:27.626Z,38.00
2022-12-12T21:42:47.768Z,38.00
2022-12-12T21:48:07.869Z,38.10
2022-12-12T21:53:28.146Z,38.00
2022-12-12T21:58:48.285Z,38.10
2022-12-12T22:04:08.494Z,38.10
2022-12-12T22:09:28.537Z,38.10
2022-12-12T22:14:48.710Z,38.00
2022-12-12T22:20:08.732Z,38.10
2022-12-12T22:25:28.931Z,38.10
2022-12-12T22:30:49.034Z,38.10
2022-12-12T22:36:09.107Z,38.10
2022-12-12T22:41:29.237Z,38.20
2022-12-12T22:46:49.585Z,38.20
2022-12-12T22:52:09.474Z,38.20
2022-12-12T22:57:29.688Z,38.10
2022-12-12T23:02:49.796Z,38.10
2022-12-12T23:08:10.094Z,38.10
2022-12-12T23:13:30.171Z,38.10
2022-12-12T23:18:50.435Z,38.10
2022-12-12T23:24:10.546Z,38.10
2022-12-12T23:29:30.750Z,38.10
2022-12-12T23:34:50.793Z,38.20
2022-12-12T23:40:11.033Z,38.00
2022-12-12T23:45:31.272Z,38.10
2022-12-12T23:50:51.310Z,38.10
2022-12-12T23:56:11.463Z,38.10
